sensor_id;sensor_type;location;lat;lon;timestamp;P1;durP1;ratioP1;P2;durP2;ratioP2
13897;SDS011;7019;50.766;4.474;2023-03-03T00:00:40;36.37;;;21.37;;
13897;SDS011;7019;50.766;4.474;2023-03-03T00:03:07;36.60;;;20.47;;
13897;SDS011;7019;50.766;4.474;2023-03-03T00:05:36;30.20;;;20.50;;
13897;SDS011;7019;50.766;4.474;2023-03-03T00:08:03;33.07;;;20.93;;
13897;SDS011;7019;50.766;4.474;2023-03-03T00:10:32;35.13;;;20.80;;
13897;SDS011;7019;50.766;4.474;2023-03-03T00:12:59;35.20;;;20.93;;
13897;SDS011;7019;50.766;4.474;2023-03-03T00:15:26;34.37;;;20.97;;
13897;SDS011;7019;50.766;4.474;2023-03-03T00:17:55;37.23;;;21.53;;
13897;SDS011;7019;50.766;4.474;2023-03-03T00:20:30;39.87;;;23.60;;
13897;SDS011;7019;50.766;4.474;2023-03-03T00:23:06;35.67;;;20.57;;
13897;SDS011;7019;50.766;4.474;2023-03-03T00:25:48;33.13;;;21.53;;
13897;SDS011;7019;50.766;4.474;2023-03-03T00:28:18;36.70;;;21.63;;
13897;SDS011;7019;50.766;4.474;2023-03-03T00:30:50;39.53;;;23.63;;
13897;SDS011;7019;50.766;4.474;2023-03-03T00:33:21;36.07;;;22.23;;
13897;SDS011;7019;50.766;4.474;2023-03-03T00:35:53;36.20;;;22.57;;
13897;SDS011;7019;50.766;4.474;2023-03-03T00:38:21;38.70;;;22.70;;
13897;SDS011;7019;50.766;4.474;2023-03-03T00:40:50;34.73;;;21.63;;
13897;SDS011;7019;50.766;4.474;2023-03-03T00:43:18;33.83;;;21.57;;
13897;SDS011;7019;50.766;4.474;2023-03-03T00:45:47;34.20;;;21.47;;
13897;SDS011;7019;50.766;4.474;2023-03-03T00:48:18;37.47;;;21.60;;
13897;SDS011;7019;50.766;4.474;2023-03-03T00:50:50;34.83;;;21.27;;
13897;SDS011;7019;50.766;4.474;2023-03-03T00:53:19;38.67;;;23.07;;
13897;SDS011;7019;50.766;4.474;2023-03-03T00:55:48;36.40;;;22.23;;
13897;SDS011;7019;50.766;4.474;2023-03-03T00:58:17;38.17;;;22.30;;
13897;SDS011;7019;50.766;4.474;2023-03-03T01:00:46;35.60;;;21.67;;
13897;SDS011;7019;50.766;4.474;2023-03-03T01:03:15;33.07;;;20.33;;
13897;SDS011;7019;50.766;4.474;2023-03-03T01:05:43;32.90;;;20.60;;
13897;SDS011;7019;50.766;4.474;2023-03-03T01:08:10;36.70;;;20.80;;
13897;SDS011;7019;50.766;4.474;2023-03-03T01:10:39;33.13;;;20.30;;
13897;SDS011;7019;50.766;4.474;2023-03-03T01:13:09;36.37;;;20.10;;
13897;SDS011;7019;50.766;4.474;2023-03-03T01:15:38;37.30;;;19.50;;
13897;SDS011;7019;50.766;4.474;2023-03-03T01:18:06;36.43;;;20.87;;
13897;SDS011;7019;50.766;4.474;2023-03-03T01:20:33;40.27;;;21.33;;
13897;SDS011;7019;50.766;4.474;2023-03-03T01:23:00;31.77;;;19.83;;
13897;SDS011;7019;50.766;4.474;2023-03-03T01:25:28;33.77;;;19.30;;
13897;SDS011;7019;50.766;4.474;2023-03-03T01:27:55;34.77;;;21.00;;
13897;SDS011;7019;50.766;4.474;2023-03-03T01:30:23;38.00;;;22.03;;
13897;SDS011;7019;50.766;4.474;2023-03-03T01:32:52;34.77;;;20.00;;
13897;SDS011;7019;50.766;4.474;2023-03-03T01:35:19;34.93;;;21.67;;
13897;SDS011;7019;50.766;4.474;2023-03-03T01:37:46;40.20;;;22.50;;
13897;SDS011;7019;50.766;4.474;2023-03-03T01:40:15;36.53;;;21.30;;
13897;SDS011;7019;50.766;4.474;2023-03-03T01:42:43;38.20;;;22.03;;
13897;SDS011;7019;50.766;4.474;2023-03-03T01:45:18;34.30;;;20.30;;
13897;SDS011;7019;50.766;4.474;2023-03-03T01:47:47;35.07;;;21.13;;
13897;SDS011;7019;50.766;4.474;2023-03-03T01:50:30;33.10;;;20.33;;
13897;SDS011;7019;50.766;4.474;2023-03-03T01:52:59;33.87;;;20.47;;
13897;SDS011;7019;50.766;4.474;2023-03-03T01:55:31;35.53;;;20.40;;
13897;SDS011;7019;50.766;4.474;2023-03-03T01:58:01;36.23;;;20.83;;
13897;SDS011;7019;50.766;4.474;2023-03-03T02:00:33;36.17;;;20.50;;
13897;SDS011;7019;50.766;4.474;2023-03-03T02:03:04;34.23;;;20.13;;
13897;SDS011;7019;50.766;4.474;2023-03-03T02:05:31;37.30;;;21.30;;
13897;SDS011;7019;50.766;4.474;2023-03-03T02:08:00;36.47;;;20.57;;
13897;SDS011;7019;50.766;4.474;2023-03-03T02:10:27;39.70;;;21.87;;
13897;SDS011;7019;50.766;4.474;2023-03-03T02:12:56;36.77;;;21.83;;
13897;SDS011;7019;50.766;4.474;2023-03-03T02:15:24;39.47;;;22.47;;
13897;SDS011;7019;50.766;4.474;2023-03-03T02:17:54;40.30;;;21.77;;
13897;SDS011;7019;50.766;4.474;2023-03-03T02:20:27;35.63;;;21.67;;
13897;SDS011;7019;50.766;4.474;2023-03-03T02:23:11;37.83;;;21.23;;
13897;SDS011;7019;50.766;4.474;2023-03-03T02:25:47;36.77;;;21.13;;
13897;SDS011;7019;50.766;4.474;2023-03-03T02:28:28;39.60;;;20.90;;
13897;SDS011;7019;50.766;4.474;2023-03-03T02:30:59;41.40;;;21.67;;
13897;SDS011;7019;50.766;4.474;2023-03-03T02:33:27;36.97;;;21.47;;
13897;SDS011;7019;50.766;4.474;2023-03-03T02:35:54;40.40;;;22.23;;
13897;SDS011;7019;50.766;4.474;2023-03-03T02:38:23;36.30;;;21.27;;
13897;SDS011;7019;50.766;4.474;2023-03-03T02:40:58;38.77;;;23.37;;
13897;SDS011;7019;50.766;4.474;2023-03-03T02:43:31;41.40;;;21.10;;
13897;SDS011;7019;50.766;4.474;2023-03-03T02:46:04;38.90;;;21.33;;
13897;SDS011;7019;50.766;4.474;2023-03-03T02:48:31;44.47;;;23.80;;
13897;SDS011;7019;50.766;4.474;2023-03-03T02:50:58;43.07;;;22.80;;
13897;SDS011;7019;50.766;4.474;2023-03-03T02:53:25;40.97;;;22.87;;
13897;SDS011;7019;50.766;4.474;2023-03-03T02:55:52;37.23;;;21.90;;
13897;SDS011;7019;50.766;4.474;2023-03-03T02:58:21;39.77;;;21.77;;
13897;SDS011;7019;50.766;4.474;2023-03-03T03:00:48;40.27;;;22.27;;
13897;SDS011;7019;50.766;4.474;2023-03-03T03:03:15;38.60;;;22.90;;
13897;SDS011;7019;50.766;4.474;2023-03-03T03:05:42;43.53;;;24.00;;
13897;SDS011;7019;50.766;4.474;2023-03-03T03:08:09;38.43;;;22.53;;
13897;SDS011;7019;50.766;4.474;2023-03-03T03:10:36;44.30;;;25.73;;
13897;SDS011;7019;50.766;4.474;2023-03-03T03:13:03;49.47;;;26.00;;
13897;SDS011;7019;50.766;4.474;2023-03-03T03:15:31;45.90;;;25.93;;
13897;SDS011;7019;50.766;4.474;2023-03-03T03:18:00;43.63;;;25.43;;
13897;SDS011;7019;50.766;4.474;2023-03-03T03:20:27;44.40;;;25.60;;
13897;SDS011;7019;50.766;4.474;2023-03-03T03:22:54;49.63;;;27.37;;
13897;SDS011;7019;50.766;4.474;2023-03-03T03:25:21;49.37;;;26.10;;
13897;SDS011;7019;50.766;4.474;2023-03-03T03:27:48;49.87;;;26.10;;
13897;SDS011;7019;50.766;4.474;2023-03-03T03:30:15;48.70;;;28.57;;
13897;SDS011;7019;50.766;4.474;2023-03-03T03:32:46;51.73;;;27.80;;
13897;SDS011;7019;50.766;4.474;2023-03-03T03:35:13;48.33;;;27.00;;
13897;SDS011;7019;50.766;4.474;2023-03-03T03:37:41;47.13;;;27.67;;
13897;SDS011;7019;50.766;4.474;2023-03-03T03:40:09;51.23;;;28.33;;
13897;SDS011;7019;50.766;4.474;2023-03-03T03:42:37;53.33;;;28.50;;
13897;SDS011;7019;50.766;4.474;2023-03-03T03:45:06;48.50;;;27.93;;
13897;SDS011;7019;50.766;4.474;2023-03-03T03:47:33;51.10;;;28.33;;
13897;SDS011;7019;50.766;4.474;2023-03-03T03:50:02;47.37;;;27.43;;
13897;SDS011;7019;50.766;4.474;2023-03-03T03:52:29;48.47;;;26.97;;
13897;SDS011;7019;50.766;4.474;2023-03-03T03:54:56;48.83;;;27.47;;
13897;SDS011;7019;50.766;4.474;2023-03-03T03:57:23;47.23;;;26.53;;
13897;SDS011;7019;50.766;4.474;2023-03-03T03:59:50;49.07;;;26.53;;
13897;SDS011;7019;50.766;4.474;2023-03-03T04:02:17;47.90;;;26.23;;
13897;SDS011;7019;50.766;4.474;2023-03-03T04:04:44;46.73;;;25.70;;
13897;SDS011;7019;50.766;4.474;2023-03-03T04:07:13;47.10;;;27.20;;
13897;SDS011;7019;50.766;4.474;2023-03-03T04:09:40;52.23;;;28.67;;
13897;SDS011;7019;50.766;4.474;2023-03-03T04:12:07;42.13;;;25.40;;
13897;SDS011;7019;50.766;4.474;2023-03-03T04:14:34;48.67;;;26.77;;
13897;SDS011;7019;50.766;4.474;2023-03-03T04:17:02;50.97;;;27.20;;
13897;SDS011;7019;50.766;4.474;2023-03-03T04:19:29;44.30;;;25.90;;
13897;SDS011;7019;50.766;4.474;2023-03-03T04:21:56;50.57;;;27.37;;
13897;SDS011;7019;50.766;4.474;2023-03-03T04:24:24;49.87;;;27.17;;
13897;SDS011;7019;50.766;4.474;2023-03-03T04:26:51;49.77;;;25.77;;
13897;SDS011;7019;50.766;4.474;2023-03-03T04:29:18;46.53;;;25.77;;
13897;SDS011;7019;50.766;4.474;2023-03-03T04:31:45;50.27;;;25.83;;
13897;SDS011;7019;50.766;4.474;2023-03-03T04:34:12;44.53;;;25.37;;
13897;SDS011;7019;50.766;4.474;2023-03-03T04:36:39;43.13;;;24.03;;
13897;SDS011;7019;50.766;4.474;2023-03-03T04:39:07;44.03;;;25.07;;
13897;SDS011;7019;50.766;4.474;2023-03-03T04:41:35;42.67;;;23.63;;
13897;SDS011;7019;50.766;4.474;2023-03-03T04:44:02;49.70;;;26.17;;
13897;SDS011;7019;50.766;4.474;2023-03-03T04:46:29;47.23;;;24.57;;
13897;SDS011;7019;50.766;4.474;2023-03-03T04:48:56;51.83;;;25.60;;
13897;SDS011;7019;50.766;4.474;2023-03-03T04:51:24;47.07;;;26.83;;
13897;SDS011;7019;50.766;4.474;2023-03-03T04:53:51;46.60;;;25.80;;
13897;SDS011;7019;50.766;4.474;2023-03-03T04:56:18;51.63;;;25.87;;
13897;SDS011;7019;50.766;4.474;2023-03-03T04:58:46;40.93;;;24.47;;
13897;SDS011;7019;50.766;4.474;2023-03-03T05:01:13;44.87;;;26.30;;
13897;SDS011;7019;50.766;4.474;2023-03-03T05:03:40;47.33;;;24.87;;
13897;SDS011;7019;50.766;4.474;2023-03-03T05:06:08;46.93;;;25.73;;
13897;SDS011;7019;50.766;4.474;2023-03-03T05:08:35;44.93;;;26.00;;
13897;SDS011;7019;50.766;4.474;2023-03-03T05:11:02;49.57;;;25.40;;
13897;SDS011;7019;50.766;4.474;2023-03-03T05:13:30;46.33;;;26.97;;
13897;SDS011;7019;50.766;4.474;2023-03-03T05:15:58;43.73;;;24.83;;
13897;SDS011;7019;50.766;4.474;2023-03-03T05:18:25;44.50;;;23.43;;
13897;SDS011;7019;50.766;4.474;2023-03-03T05:20:53;46.23;;;23.80;;
13897;SDS011;7019;50.766;4.474;2023-03-03T05:23:20;49.40;;;27.00;;
13897;SDS011;7019;50.766;4.474;2023-03-03T05:25:49;46.97;;;25.43;;
13897;SDS011;7019;50.766;4.474;2023-03-03T05:28:16;42.03;;;23.90;;
13897;SDS011;7019;50.766;4.474;2023-03-03T05:30:43;42.57;;;23.53;;
13897;SDS011;7019;50.766;4.474;2023-03-03T05:33:13;46.00;;;25.80;;
13897;SDS011;7019;50.766;4.474;2023-03-03T05:35:42;45.93;;;25.97;;
13897;SDS011;7019;50.766;4.474;2023-03-03T05:38:09;48.00;;;24.13;;
13897;SDS011;7019;50.766;4.474;2023-03-03T05:40:37;49.10;;;25.73;;
13897;SDS011;7019;50.766;4.474;2023-03-03T05:43:04;42.87;;;24.60;;
13897;SDS011;7019;50.766;4.474;2023-03-03T05:45:31;43.07;;;24.73;;
13897;SDS011;7019;50.766;4.474;2023-03-03T05:47:59;42.70;;;23.60;;
13897;SDS011;7019;50.766;4.474;2023-03-03T05:50:28;41.90;;;22.97;;
13897;SDS011;7019;50.766;4.474;2023-03-03T05:52:56;42.30;;;22.87;;
13897;SDS011;7019;50.766;4.474;2023-03-03T05:55:23;45.60;;;25.60;;
13897;SDS011;7019;50.766;4.474;2023-03-03T05:57:51;48.40;;;25.10;;
13897;SDS011;7019;50.766;4.474;2023-03-03T06:00:18;46.50;;;24.70;;
13897;SDS011;7019;50.766;4.474;2023-03-03T06:02:46;47.47;;;25.40;;
13897;SDS011;7019;50.766;4.474;2023-03-03T06:05:13;45.97;;;24.17;;
13897;SDS011;7019;50.766;4.474;2023-03-03T06:07:41;48.77;;;24.70;;
13897;SDS011;7019;50.766;4.474;2023-03-03T06:10:09;43.90;;;23.43;;
13897;SDS011;7019;50.766;4.474;2023-03-03T06:12:36;48.80;;;26.13;;
13897;SDS011;7019;50.766;4.474;2023-03-03T06:15:05;42.50;;;25.13;;
13897;SDS011;7019;50.766;4.474;2023-03-03T06:17:33;49.27;;;25.37;;
13897;SDS011;7019;50.766;4.474;2023-03-03T06:20:00;48.63;;;25.90;;
13897;SDS011;7019;50.766;4.474;2023-03-03T06:22:28;45.90;;;25.30;;
13897;SDS011;7019;50.766;4.474;2023-03-03T06:24:56;40.90;;;22.20;;
13897;SDS011;7019;50.766;4.474;2023-03-03T06:27:23;46.60;;;23.87;;
13897;SDS011;7019;50.766;4.474;2023-03-03T06:29:50;46.67;;;25.33;;
13897;SDS011;7019;50.766;4.474;2023-03-03T06:32:18;50.73;;;25.07;;
13897;SDS011;7019;50.766;4.474;2023-03-03T06:34:45;46.47;;;25.67;;
13897;SDS011;7019;50.766;4.474;2023-03-03T06:37:12;52.03;;;27.97;;
13897;SDS011;7019;50.766;4.474;2023-03-03T06:39:39;49.37;;;26.13;;
13897;SDS011;7019;50.766;4.474;2023-03-03T06:42:07;48.93;;;25.07;;
13897;SDS011;7019;50.766;4.474;2023-03-03T06:44:34;48.30;;;25.03;;
13897;SDS011;7019;50.766;4.474;2023-03-03T06:47:02;49.20;;;26.33;;
13897;SDS011;7019;50.766;4.474;2023-03-03T06:49:30;54.10;;;27.77;;
13897;SDS011;7019;50.766;4.474;2023-03-03T06:51:57;49.20;;;27.13;;
13897;SDS011;7019;50.766;4.474;2023-03-03T06:54:27;46.90;;;25.47;;
13897;SDS011;7019;50.766;4.474;2023-03-03T06:56:56;50.70;;;26.37;;
13897;SDS011;7019;50.766;4.474;2023-03-03T06:59:27;49.63;;;27.73;;
13897;SDS011;7019;50.766;4.474;2023-03-03T07:01:54;51.47;;;27.63;;
13897;SDS011;7019;50.766;4.474;2023-03-03T07:04:23;54.10;;;27.17;;
13897;SDS011;7019;50.766;4.474;2023-03-03T07:06:55;50.93;;;26.47;;
13897;SDS011;7019;50.766;4.474;2023-03-03T07:09:24;48.90;;;27.07;;
13897;SDS011;7019;50.766;4.474;2023-03-03T07:11:52;48.67;;;25.40;;
13897;SDS011;7019;50.766;4.474;2023-03-03T07:14:40;48.10;;;25.20;;
13897;SDS011;7019;50.766;4.474;2023-03-03T07:17:09;51.10;;;26.20;;
13897;SDS011;7019;50.766;4.474;2023-03-03T07:19:41;48.73;;;25.47;;
13897;SDS011;7019;50.766;4.474;2023-03-03T07:22:14;45.77;;;25.40;;
13897;SDS011;7019;50.766;4.474;2023-03-03T07:24:42;44.03;;;24.23;;
13897;SDS011;7019;50.766;4.474;2023-03-03T07:27:13;46.27;;;24.83;;
13897;SDS011;7019;50.766;4.474;2023-03-03T07:29:46;42.07;;;25.13;;
13897;SDS011;7019;50.766;4.474;2023-03-03T07:32:20;45.73;;;23.60;;
13897;SDS011;7019;50.766;4.474;2023-03-03T07:34:51;46.57;;;25.97;;
13897;SDS011;7019;50.766;4.474;2023-03-03T07:37:21;46.20;;;25.07;;
13897;SDS011;7019;50.766;4.474;2023-03-03T07:39:56;46.53;;;24.17;;
13897;SDS011;7019;50.766;4.474;2023-03-03T07:42:25;42.57;;;23.87;;
13897;SDS011;7019;50.766;4.474;2023-03-03T07:44:55;41.60;;;23.40;;
13897;SDS011;7019;50.766;4.474;2023-03-03T07:47:24;44.00;;;23.50;;
13897;SDS011;7019;50.766;4.474;2023-03-03T07:49:54;44.33;;;22.90;;
13897;SDS011;7019;50.766;4.474;2023-03-03T07:52:24;39.40;;;22.03;;
13897;SDS011;7019;50.766;4.474;2023-03-03T07:54:53;44.93;;;24.10;;
13897;SDS011;7019;50.766;4.474;2023-03-03T07:57:22;34.63;;;20.07;;
13897;SDS011;7019;50.766;4.474;2023-03-03T07:59:52;39.47;;;20.27;;
13897;SDS011;7019;50.766;4.474;2023-03-03T08:02:33;38.37;;;20.80;;
13897;SDS011;7019;50.766;4.474;2023-03-03T08:07:54;45.07;;;23.43;;
13897;SDS011;7019;50.766;4.474;2023-03-03T08:10:48;48.27;;;21.63;;
13897;SDS011;7019;50.766;4.474;2023-03-03T08:13:18;42.27;;;22.97;;
13897;SDS011;7019;50.766;4.474;2023-03-03T08:15:47;37.57;;;20.90;;
13897;SDS011;7019;50.766;4.474;2023-03-03T08:18:21;40.53;;;23.80;;
13897;SDS011;7019;50.766;4.474;2023-03-03T08:20:51;41.00;;;21.77;;
13897;SDS011;7019;50.766;4.474;2023-03-03T08:23:19;42.87;;;22.30;;
13897;SDS011;7019;50.766;4.474;2023-03-03T08:25:47;40.60;;;21.57;;
13897;SDS011;7019;50.766;4.474;2023-03-03T08:28:16;40.97;;;21.67;;
13897;SDS011;7019;50.766;4.474;2023-03-03T08:30:44;41.30;;;21.67;;
13897;SDS011;7019;50.766;4.474;2023-03-03T08:33:13;38.47;;;21.57;;
13897;SDS011;7019;50.766;4.474;2023-03-03T08:35:41;47.47;;;21.73;;
13897;SDS011;7019;50.766;4.474;2023-03-03T08:38:08;35.53;;;20.07;;
13897;SDS011;7019;50.766;4.474;2023-03-03T08:40:37;34.07;;;19.80;;
13897;SDS011;7019;50.766;4.474;2023-03-03T08:43:04;38.03;;;21.37;;
13897;SDS011;7019;50.766;4.474;2023-03-03T08:45:31;36.97;;;20.87;;
13897;SDS011;7019;50.766;4.474;2023-03-03T08:47:59;37.83;;;21.90;;
13897;SDS011;7019;50.766;4.474;2023-03-03T08:50:28;39.63;;;22.00;;
13897;SDS011;7019;50.766;4.474;2023-03-03T08:52:55;38.07;;;21.00;;
13897;SDS011;7019;50.766;4.474;2023-03-03T08:55:22;38.40;;;21.23;;
13897;SDS011;7019;50.766;4.474;2023-03-03T08:57:50;44.23;;;23.33;;
13897;SDS011;7019;50.766;4.474;2023-03-03T09:00:17;41.73;;;21.37;;
13897;SDS011;7019;50.766;4.474;2023-03-03T09:02:44;39.53;;;20.77;;
13897;SDS011;7019;50.766;4.474;2023-03-03T09:05:12;38.57;;;20.67;;
13897;SDS011;7019;50.766;4.474;2023-03-03T09:07:40;35.20;;;20.90;;
13897;SDS011;7019;50.766;4.474;2023-03-03T09:10:09;41.57;;;21.43;;
13897;SDS011;7019;50.766;4.474;2023-03-03T09:12:39;36.73;;;19.97;;
13897;SDS011;7019;50.766;4.474;2023-03-03T09:15:13;36.77;;;19.90;;
13897;SDS011;7019;50.766;4.474;2023-03-03T09:17:45;32.27;;;18.53;;
13897;SDS011;7019;50.766;4.474;2023-03-03T09:20:20;33.07;;;20.63;;
13897;SDS011;7019;50.766;4.474;2023-03-03T09:22:54;37.63;;;19.73;;
13897;SDS011;7019;50.766;4.474;2023-03-03T09:25:30;34.27;;;18.00;;
13897;SDS011;7019;50.766;4.474;2023-03-03T09:27:59;34.10;;;17.57;;
13897;SDS011;7019;50.766;4.474;2023-03-03T09:33:24;33.93;;;19.50;;
13897;SDS011;7019;50.766;4.474;2023-03-03T09:35:55;34.80;;;19.53;;
13897;SDS011;7019;50.766;4.474;2023-03-03T09:38:39;35.90;;;19.40;;
13897;SDS011;7019;50.766;4.474;2023-03-03T09:44:23;31.63;;;18.33;;
13897;SDS011;7019;50.766;4.474;2023-03-03T09:47:04;31.90;;;17.87;;
13897;SDS011;7019;50.766;4.474;2023-03-03T09:49:41;32.00;;;18.43;;
13897;SDS011;7019;50.766;4.474;2023-03-03T09:52:26;36.20;;;18.13;;
13897;SDS011;7019;50.766;4.474;2023-03-03T09:55:07;34.63;;;19.90;;
13897;SDS011;7019;50.766;4.474;2023-03-03T09:57:55;34.47;;;19.33;;
13897;SDS011;7019;50.766;4.474;2023-03-03T10:00:35;34.90;;;20.23;;
13897;SDS011;7019;50.766;4.474;2023-03-03T10:03:31;32.77;;;19.30;;
13897;SDS011;7019;50.766;4.474;2023-03-03T10:06:16;37.77;;;20.43;;
13897;SDS011;7019;50.766;4.474;2023-03-03T10:08:56;38.83;;;19.40;;
13897;SDS011;7019;50.766;4.474;2023-03-03T10:11:37;33.37;;;18.30;;
13897;SDS011;7019;50.766;4.474;2023-03-03T10:14:14;33.73;;;18.63;;
13897;SDS011;7019;50.766;4.474;2023-03-03T10:16:59;29.17;;;17.00;;
13897;SDS011;7019;50.766;4.474;2023-03-03T10:19:38;31.50;;;16.13;;
13897;SDS011;7019;50.766;4.474;2023-03-03T10:22:16;34.57;;;17.40;;
13897;SDS011;7019;50.766;4.474;2023-03-03T10:24:52;31.90;;;16.53;;
13897;SDS011;7019;50.766;4.474;2023-03-03T10:30:32;30.03;;;16.33;;
13897;SDS011;7019;50.766;4.474;2023-03-03T10:33:07;27.67;;;15.67;;
13897;SDS011;7019;50.766;4.474;2023-03-03T10:35:44;33.10;;;16.90;;
13897;SDS011;7019;50.766;4.474;2023-03-03T10:38:42;30.17;;;16.87;;
13897;SDS011;7019;50.766;4.474;2023-03-03T10:41:27;32.70;;;17.07;;
13897;SDS011;7019;50.766;4.474;2023-03-03T10:44:22;34.53;;;17.53;;
13897;SDS011;7019;50.766;4.474;2023-03-03T10:47:25;33.00;;;16.63;;
13897;SDS011;7019;50.766;4.474;2023-03-03T10:50:06;35.43;;;17.50;;
13897;SDS011;7019;50.766;4.474;2023-03-03T10:52:42;31.17;;;18.07;;
13897;SDS011;7019;50.766;4.474;2023-03-03T10:55:25;29.87;;;16.53;;
13897;SDS011;7019;50.766;4.474;2023-03-03T10:58:15;33.20;;;17.00;;
13897;SDS011;7019;50.766;4.474;2023-03-03T11:00:54;29.33;;;15.83;;
13897;SDS011;7019;50.766;4.474;2023-03-03T11:03:37;31.27;;;16.70;;
13897;SDS011;7019;50.766;4.474;2023-03-03T11:06:15;35.73;;;17.10;;
13897;SDS011;7019;50.766;4.474;2023-03-03T11:08:48;30.33;;;17.13;;
13897;SDS011;7019;50.766;4.474;2023-03-03T11:11:23;31.63;;;16.97;;
13897;SDS011;7019;50.766;4.474;2023-03-03T11:13:59;30.80;;;15.57;;
13897;SDS011;7019;50.766;4.474;2023-03-03T11:16:38;29.20;;;15.53;;
13897;SDS011;7019;50.766;4.474;2023-03-03T11:19:27;29.27;;;16.57;;
13897;SDS011;7019;50.766;4.474;2023-03-03T11:22:20;27.07;;;15.27;;
13897;SDS011;7019;50.766;4.474;2023-03-03T11:25:00;26.87;;;16.10;;
13897;SDS011;7019;50.766;4.474;2023-03-03T11:27:43;31.60;;;16.17;;
13897;SDS011;7019;50.766;4.474;2023-03-03T11:30:33;29.80;;;14.83;;
13897;SDS011;7019;50.766;4.474;2023-03-03T11:33:14;29.77;;;16.00;;
13897;SDS011;7019;50.766;4.474;2023-03-03T11:35:47;30.00;;;16.63;;
13897;SDS011;7019;50.766;4.474;2023-03-03T11:41:16;30.97;;;16.53;;
13897;SDS011;7019;50.766;4.474;2023-03-03T11:44:09;30.77;;;16.03;;
13897;SDS011;7019;50.766;4.474;2023-03-03T11:46:44;34.23;;;17.00;;
13897;SDS011;7019;50.766;4.474;2023-03-03T11:49:17;28.77;;;15.80;;
13897;SDS011;7019;50.766;4.474;2023-03-03T11:51:52;27.67;;;14.50;;
13897;SDS011;7019;50.766;4.474;2023-03-03T11:54:29;27.40;;;15.30;;
13897;SDS011;7019;50.766;4.474;2023-03-03T11:57:08;30.20;;;15.27;;
13897;SDS011;7019;50.766;4.474;2023-03-03T11:59:49;30.83;;;16.10;;
13897;SDS011;7019;50.766;4.474;2023-03-03T12:05:28;32.60;;;15.43;;
13897;SDS011;7019;50.766;4.474;2023-03-03T12:08:06;30.87;;;16.47;;
13897;SDS011;7019;50.766;4.474;2023-03-03T12:10:41;43.20;;;18.77;;
13897;SDS011;7019;50.766;4.474;2023-03-03T12:13:16;35.13;;;18.27;;
13897;SDS011;7019;50.766;4.474;2023-03-03T12:15:51;37.33;;;17.73;;
13897;SDS011;7019;50.766;4.474;2023-03-03T12:18:31;31.83;;;17.27;;
13897;SDS011;7019;50.766;4.474;2023-03-03T12:21:23;29.30;;;15.67;;
13897;SDS011;7019;50.766;4.474;2023-03-03T12:24:12;26.13;;;14.23;;
13897;SDS011;7019;50.766;4.474;2023-03-03T12:26:49;30.53;;;16.93;;
13897;SDS011;7019;50.766;4.474;2023-03-03T12:29:24;26.33;;;15.90;;
13897;SDS011;7019;50.766;4.474;2023-03-03T12:31:55;29.30;;;15.93;;
13897;SDS011;7019;50.766;4.474;2023-03-03T12:34:31;25.63;;;14.17;;
13897;SDS011;7019;50.766;4.474;2023-03-03T12:37:07;26.03;;;13.83;;
13897;SDS011;7019;50.766;4.474;2023-03-03T12:39:51;23.97;;;13.93;;
13897;SDS011;7019;50.766;4.474;2023-03-03T12:42:32;27.07;;;14.47;;
13897;SDS011;7019;50.766;4.474;2023-03-03T12:45:10;29.83;;;14.53;;
13897;SDS011;7019;50.766;4.474;2023-03-03T12:47:50;28.90;;;14.60;;
13897;SDS011;7019;50.766;4.474;2023-03-03T12:50:23;26.03;;;14.73;;
13897;SDS011;7019;50.766;4.474;2023-03-03T12:53:02;26.63;;;15.27;;
13897;SDS011;7019;50.766;4.474;2023-03-03T12:55:40;24.90;;;15.23;;
13897;SDS011;7019;50.766;4.474;2023-03-03T12:58:16;22.80;;;13.73;;
13897;SDS011;7019;50.766;4.474;2023-03-03T13:00:53;25.43;;;14.37;;
13897;SDS011;7019;50.766;4.474;2023-03-03T13:03:35;23.53;;;13.13;;
13897;SDS011;7019;50.766;4.474;2023-03-03T13:06:10;23.37;;;14.17;;
13897;SDS011;7019;50.766;4.474;2023-03-03T13:08:59;24.50;;;13.77;;
13897;SDS011;7019;50.766;4.474;2023-03-03T13:11:38;23.77;;;13.77;;
13897;SDS011;7019;50.766;4.474;2023-03-03T13:14:17;24.07;;;13.63;;
13897;SDS011;7019;50.766;4.474;2023-03-03T13:16:56;21.90;;;12.97;;
13897;SDS011;7019;50.766;4.474;2023-03-03T13:19:32;22.20;;;13.40;;
13897;SDS011;7019;50.766;4.474;2023-03-03T13:22:06;22.20;;;13.80;;
13897;SDS011;7019;50.766;4.474;2023-03-03T13:24:43;21.57;;;11.60;;
13897;SDS011;7019;50.766;4.474;2023-03-03T13:27:21;25.93;;;13.40;;
13897;SDS011;7019;50.766;4.474;2023-03-03T13:29:55;21.40;;;12.87;;
13897;SDS011;7019;50.766;4.474;2023-03-03T13:32:27;25.03;;;13.23;;
13897;SDS011;7019;50.766;4.474;2023-03-03T13:35:03;22.20;;;12.47;;
13897;SDS011;7019;50.766;4.474;2023-03-03T13:37:34;25.77;;;14.53;;
13897;SDS011;7019;50.766;4.474;2023-03-03T13:40:09;27.03;;;15.37;;
13897;SDS011;7019;50.766;4.474;2023-03-03T13:42:42;20.10;;;12.57;;
13897;SDS011;7019;50.766;4.474;2023-03-03T13:45:15;24.77;;;13.53;;
13897;SDS011;7019;50.766;4.474;2023-03-03T13:47:47;20.07;;;12.07;;
13897;SDS011;7019;50.766;4.474;2023-03-03T13:50:26;21.47;;;13.87;;
13897;SDS011;7019;50.766;4.474;2023-03-03T13:53:05;20.33;;;12.60;;
13897;SDS011;7019;50.766;4.474;2023-03-03T13:55:49;23.23;;;13.50;;
13897;SDS011;7019;50.766;4.474;2023-03-03T13:58:23;20.07;;;12.77;;
13897;SDS011;7019;50.766;4.474;2023-03-03T14:00:59;22.07;;;13.10;;
13897;SDS011;7019;50.766;4.474;2023-03-03T14:06:19;24.07;;;13.37;;
13897;SDS011;7019;50.766;4.474;2023-03-03T14:12:01;21.53;;;13.20;;
13897;SDS011;7019;50.766;4.474;2023-03-03T14:14:41;25.27;;;13.20;;
13897;SDS011;7019;50.766;4.474;2023-03-03T14:17:16;23.47;;;13.10;;
13897;SDS011;7019;50.766;4.474;2023-03-03T14:19:57;18.73;;;12.77;;
13897;SDS011;7019;50.766;4.474;2023-03-03T14:22:32;21.27;;;12.83;;
13897;SDS011;7019;50.766;4.474;2023-03-03T14:25:10;22.13;;;13.50;;
13897;SDS011;7019;50.766;4.474;2023-03-03T14:27:51;24.23;;;11.93;;
13897;SDS011;7019;50.766;4.474;2023-03-03T14:30:28;20.67;;;11.73;;
13897;SDS011;7019;50.766;4.474;2023-03-03T14:32:58;21.07;;;11.23;;
13897;SDS011;7019;50.766;4.474;2023-03-03T14:35:29;20.33;;;12.67;;
13897;SDS011;7019;50.766;4.474;2023-03-03T14:38:02;20.33;;;12.50;;
13897;SDS011;7019;50.766;4.474;2023-03-03T14:40:36;21.60;;;12.57;;
13897;SDS011;7019;50.766;4.474;2023-03-03T14:43:19;22.37;;;12.13;;
13897;SDS011;7019;50.766;4.474;2023-03-03T14:45:49;25.93;;;12.70;;
13897;SDS011;7019;50.766;4.474;2023-03-03T14:48:18;20.30;;;11.90;;
13897;SDS011;7019;50.766;4.474;2023-03-03T14:50:48;20.77;;;11.17;;
13897;SDS011;7019;50.766;4.474;2023-03-03T14:53:20;21.20;;;12.03;;
13897;SDS011;7019;50.766;4.474;2023-03-03T14:56:13;19.60;;;12.00;;
13897;SDS011;7019;50.766;4.474;2023-03-03T14:58:43;21.87;;;12.57;;
13897;SDS011;7019;50.766;4.474;2023-03-03T15:01:14;20.03;;;12.07;;
13897;SDS011;7019;50.766;4.474;2023-03-03T15:03:48;19.13;;;11.20;;
13897;SDS011;7019;50.766;4.474;2023-03-03T15:06:27;21.07;;;12.63;;
13897;SDS011;7019;50.766;4.474;2023-03-03T15:09:24;20.87;;;12.47;;
13897;SDS011;7019;50.766;4.474;2023-03-03T15:11:57;19.67;;;10.57;;
13897;SDS011;7019;50.766;4.474;2023-03-03T15:14:29;20.20;;;11.60;;
13897;SDS011;7019;50.766;4.474;2023-03-03T15:17:11;19.97;;;11.50;;
13897;SDS011;7019;50.766;4.474;2023-03-03T15:22:50;19.20;;;10.63;;
13897;SDS011;7019;50.766;4.474;2023-03-03T15:25:25;22.73;;;10.90;;
13897;SDS011;7019;50.766;4.474;2023-03-03T15:28:04;16.63;;;10.50;;
13897;SDS011;7019;50.766;4.474;2023-03-03T15:30:49;19.60;;;10.57;;